Time;durP1;ratioP1;P1;durP2;ratioP2;P2;SDS_P1;SDS_P2;PMS_P1;PMS_P2;Temp;Humidity;BMP_temperature;BMP_pressure;BME280_temperature;BME280_humidity;BME280_pressure;Samples;Min_cycle;Max_cycle;Signal;HPM_P1;HPM_P2
2023/07/12 00:01:02;;;;;;;9.00;5.30;;;20.20;99.90;;;;;;5039011;28;20198;-60
2023/07/12 00:03:30;;;;;;;8.50;5.43;;;20.20;99.90;;;;;;5040669;28;20500;-60
2023/07/12 00:05:56;;;;;;;13.93;5.70;;;20.20;99.90;;;;;;5036898;28;20440;-59
2023/07/12 00:08:24;;;;;;;9.93;5.50;;;20.20;99.90;;;;;;5031905;28;20425;-60
2023/07/12 00:10:51;;;;;;;11.10;6.03;;;20.20;99.90;;;;;;5043612;28;20662;-59
2023/07/12 00:13:18;;;;;;;15.63;6.10;;;20.10;99.90;;;;;;5031093;28;20458;-60
2023/07/12 00:15:44;;;;;;;12.10;5.80;;;20.20;99.90;;;;;;5027756;28;20442;-59
2023/07/12 00:18:28;;;;;;;12.33;5.93;;;20.20;99.90;;;;;;5033165;28;20425;-60
2023/07/12 00:20:54;;;;;;;8.80;5.70;;;20.20;99.90;;;;;;5016689;28;20834;-62
2023/07/12 00:23:20;;;;;;;11.33;5.37;;;20.20;99.90;;;;;;5023933;28;20441;-58
2023/07/12 00:25:47;;;;;;;9.07;6.27;;;20.20;99.90;;;;;;5022914;28;20191;-59
2023/07/12 00:28:25;;;;;;;7.50;4.60;;;20.20;99.90;;;;;;5021791;28;22831;-60
2023/07/12 00:30:57;;;;;;;11.23;5.60;;;20.20;99.90;;;;;;5031014;28;20458;-60
2023/07/12 00:33:23;;;;;;;9.40;5.60;;;20.20;99.90;;;;;;5046000;28;20441;-60
2023/07/12 00:35:49;;;;;;;13.77;4.50;;;20.20;99.90;;;;;;5045840;28;20420;-59
2023/07/12 00:38:18;;;;;;;13.67;5.90;;;20.20;99.90;;;;;;5037625;28;20476;-59
2023/07/12 00:40:58;;;;;;;12.47;5.10;;;20.20;99.90;;;;;;5036252;28;20961;-57
2023/07/12 00:43:30;;;;;;;11.60;5.20;;;20.10;99.90;;;;;;5035400;28;20503;-60
2023/07/12 00:45:58;;;;;;;5.83;4.37;;;20.00;99.90;;;;;;5043092;28;20437;-59
2023/07/12 00:48:24;;;;;;;10.07;5.07;;;20.00;99.90;;;;;;5038180;28;20417;-60
2023/07/12 00:50:49;;;;;;;9.57;5.07;;;19.90;99.90;;;;;;5043099;28;20424;-59
2023/07/12 00:53:18;;;;;;;10.60;5.20;;;19.90;99.90;;;;;;5043261;28;20233;-60
2023/07/12 00:56:10;;;;;;;8.77;4.47;;;19.90;99.90;;;;;;5046792;28;20257;-60
2023/07/12 00:58:42;;;;;;;6.47;4.60;;;19.80;99.90;;;;;;5039733;28;20433;-60
2023/07/12 01:01:09;;;;;;;5.00;4.47;;;19.80;99.90;;;;;;5044084;28;22471;-60
2023/07/12 01:03:37;;;;;;;8.87;4.67;;;19.80;99.90;;;;;;5047607;28;20449;-60
2023/07/12 01:06:07;;;;;;;7.67;4.83;;;19.80;99.90;;;;;;5050964;28;20429;-60
2023/07/12 01:08:33;;;;;;;11.23;4.70;;;19.70;99.90;;;;;;5047679;28;20475;-60
2023/07/12 01:11:02;;;;;;;7.80;4.67;;;19.70;99.90;;;;;;5052211;28;20418;-64
2023/07/12 01:13:29;;;;;;;7.37;4.03;;;19.80;99.90;;;;;;5053764;28;20681;-60
2023/07/12 01:16:01;;;;;;;13.67;5.00;;;19.80;99.90;;;;;;5046701;28;21228;-60
2023/07/12 01:18:27;;;;;;;12.67;4.73;;;19.70;99.90;;;;;;5043721;28;20432;-59
2023/07/12 01:21:08;;;;;;;11.97;4.30;;;19.70;99.90;;;;;;5047861;28;20444;-59
2023/07/12 01:23:34;;;;;;;6.33;4.10;;;19.70;99.90;;;;;;5045804;28;20735;-60
2023/07/12 01:26:18;;;;;;;7.53;4.00;;;19.70;99.90;;;;;;5046113;28;20425;-60
2023/07/12 01:28:46;;;;;;;9.03;4.37;;;19.70;99.90;;;;;;5048651;28;20175;-60
2023/07/12 01:31:12;;;;;;;10.03;4.20;;;19.70;99.90;;;;;;5040147;28;20426;-60
2023/07/12 01:33:37;;;;;;;11.90;3.97;;;19.60;99.90;;;;;;5033554;28;20514;-59
2023/07/12 01:36:03;;;;;;;7.87;3.73;;;19.60;99.90;;;;;;5032607;28;20683;-60
2023/07/12 01:38:29;;;;;;;7.90;3.87;;;19.60;99.90;;;;;;5033588;28;20291;-60
2023/07/12 01:40:54;;;;;;;7.53;4.27;;;19.60;99.90;;;;;;5026958;28;20195;-61
2023/07/12 01:43:20;;;;;;;8.20;4.47;;;19.60;99.90;;;;;;5041544;28;20207;-60
2023/07/12 01:45:45;;;;;;;8.90;4.40;;;19.60;99.90;;;;;;5041115;28;20210;-60
2023/07/12 01:48:11;;;;;;;9.13;4.33;;;19.50;99.90;;;;;;5035788;28;20176;-60
2023/07/12 01:50:36;;;;;;;5.13;3.87;;;19.50;99.90;;;;;;5038432;28;20179;-60
2023/07/12 01:53:03;;;;;;;8.50;3.90;;;19.50;99.90;;;;;;5038663;28;20715;-61
2023/07/12 01:55:29;;;;;;;7.43;3.60;;;19.40;99.90;;;;;;5026857;28;20218;-61
2023/07/12 01:57:54;;;;;;;9.03;3.70;;;19.30;99.90;;;;;;5025813;28;20525;-60
2023/07/12 02:00:20;;;;;;;9.37;3.47;;;19.30;99.90;;;;;;5025203;28;20721;-61
2023/07/12 02:02:45;;;;;;;8.30;3.90;;;19.30;99.90;;;;;;5029108;28;20321;-60
2023/07/12 02:05:11;;;;;;;12.27;4.20;;;19.30;99.90;;;;;;5040117;28;20176;-59
2023/07/12 02:07:37;;;;;;;5.63;3.37;;;19.30;99.90;;;;;;5036504;28;20282;-60
2023/07/12 02:10:12;;;;;;;8.20;3.60;;;19.30;99.90;;;;;;5041123;28;20287;-60
2023/07/12 02:12:38;;;;;;;7.90;3.60;;;19.30;99.90;;;;;;5045593;28;20194;-60
2023/07/12 02:15:04;;;;;;;10.23;3.47;;;19.30;99.90;;;;;;5039600;28;20437;-60
2023/07/12 02:17:29;;;;;;;9.30;4.20;;;19.20;99.90;;;;;;5038891;28;20199;-59
2023/07/12 02:19:55;;;;;;;9.10;3.80;;;19.20;99.90;;;;;;5036189;28;20215;-60
2023/07/12 02:22:20;;;;;;;11.13;4.13;;;19.20;99.90;;;;;;5031714;28;20275;-60
2023/07/12 02:24:46;;;;;;;10.00;3.90;;;19.10;99.90;;;;;;5030718;28;20200;-59
2023/07/12 02:27:11;;;;;;;4.80;3.33;;;19.10;99.90;;;;;;5041892;28;20656;-60
2023/07/12 02:29:38;;;;;;;10.63;3.40;;;19.10;99.90;;;;;;5036698;28;20180;-59
2023/07/12 02:32:04;;;;;;;9.47;4.00;;;19.10;99.90;;;;;;5033668;28;20168;-60
2023/07/12 02:34:29;;;;;;;8.63;3.60;;;19.00;99.90;;;;;;5030819;28;21409;-60
2023/07/12 02:36:55;;;;;;;9.10;3.17;;;19.00;99.90;;;;;;5026366;28;20463;-60
2023/07/12 02:39:21;;;;;;;4.47;3.27;;;19.00;99.90;;;;;;5028907;28;20213;-58
2023/07/12 02:41:46;;;;;;;8.03;3.47;;;18.90;99.90;;;;;;5027833;28;20572;-60
2023/07/12 02:44:12;;;;;;;6.20;3.70;;;18.90;99.90;;;;;;5025378;28;20914;-60
2023/07/12 02:46:37;;;;;;;8.60;3.50;;;18.90;99.90;;;;;;5031141;28;20184;-59
2023/07/12 02:49:03;;;;;;;5.13;3.30;;;18.90;99.90;;;;;;5041755;28;20166;-60
2023/07/12 02:51:29;;;;;;;6.50;3.97;;;18.90;99.90;;;;;;5039522;28;20806;-60
2023/07/12 02:53:54;;;;;;;6.73;3.90;;;18.90;99.90;;;;;;5030189;28;20204;-60
2023/07/12 02:56:20;;;;;;;10.10;4.70;;;18.90;99.90;;;;;;5029273;28;20590;-59
2023/07/12 02:58:45;;;;;;;9.87;4.40;;;18.90;99.90;;;;;;5026079;28;20257;-60
2023/07/12 03:01:11;;;;;;;9.37;3.87;;;18.90;99.90;;;;;;5027514;28;20231;-61
2023/07/12 03:03:37;;;;;;;6.13;3.50;;;19.00;99.90;;;;;;5026853;28;20916;-61
2023/07/12 03:06:05;;;;;;;6.53;3.50;;;19.00;99.90;;;;;;5030651;28;20271;-62
2023/07/12 03:08:31;;;;;;;6.50;3.87;;;19.00;99.90;;;;;;5032892;28;20214;-62
2023/07/12 03:10:58;;;;;;;8.63;4.43;;;19.00;99.90;;;;;;5032720;28;20466;-62
2023/07/12 03:13:24;;;;;;;9.23;4.30;;;19.10;99.90;;;;;;5033229;28;20632;-59
2023/07/12 03:15:50;;;;;;;5.63;3.63;;;19.10;99.90;;;;;;5031400;28;20517;-61
2023/07/12 03:18:15;;;;;;;12.83;3.90;;;19.00;99.90;;;;;;5033762;28;20530;-61
2023/07/12 03:20:41;;;;;;;9.53;4.07;;;19.00;99.90;;;;;;5030463;28;22295;-60
2023/07/12 03:23:06;;;;;;;6.37;4.10;;;19.00;99.90;;;;;;5034493;28;20191;-61
2023/07/12 03:25:32;;;;;;;6.47;4.30;;;19.00;99.90;;;;;;5035182;28;20492;-61
2023/07/12 03:27:58;;;;;;;7.83;5.27;;;19.00;99.90;;;;;;5040454;28;20541;-61
2023/07/12 03:30:24;;;;;;;5.00;3.77;;;19.00;99.90;;;;;;5035283;28;20179;-60
2023/07/12 03:32:51;;;;;;;8.63;4.30;;;19.00;99.90;;;;;;5033867;28;20469;-61
2023/07/12 03:35:16;;;;;;;6.43;3.93;;;19.10;99.90;;;;;;5027949;28;20523;-58
2023/07/12 03:37:43;;;;;;;6.70;4.60;;;19.10;99.90;;;;;;5030157;28;20430;-59
2023/07/12 03:40:09;;;;;;;5.40;3.93;;;19.10;99.90;;;;;;5028100;28;20199;-59
2023/07/12 03:42:35;;;;;;;9.40;4.20;;;19.10;99.90;;;;;;5031477;28;20806;-59
2023/07/12 03:45:01;;;;;;;9.80;3.90;;;19.10;99.90;;;;;;5029697;28;20430;-59
2023/07/12 03:47:26;;;;;;;15.83;4.53;;;19.10;99.90;;;;;;5037881;28;20183;-59
2023/07/12 03:49:53;;;;;;;7.70;4.03;;;19.10;99.90;;;;;;5030764;28;20438;-59
2023/07/12 03:52:18;;;;;;;10.40;4.40;;;19.10;99.90;;;;;;5029272;28;22585;-58
2023/07/12 03:54:44;;;;;;;9.27;3.90;;;19.20;99.90;;;;;;5030152;28;20446;-58
2023/07/12 03:57:10;;;;;;;7.10;4.33;;;19.20;99.90;;;;;;5031591;28;20206;-59
2023/07/12 03:59:35;;;;;;;7.57;4.43;;;19.20;99.90;;;;;;5030455;28;20171;-59
2023/07/12 04:02:01;;;;;;;5.83;3.90;;;19.20;99.90;;;;;;5024829;28;20667;-59
2023/07/12 04:04:26;;;;;;;11.00;4.50;;;19.20;99.90;;;;;;5003857;28;20234;-59
2023/07/12 04:06:52;;;;;;;10.13;4.73;;;19.10;99.90;;;;;;5012699;28;20181;-59
2023/07/12 04:09:17;;;;;;;7.40;4.23;;;19.20;99.90;;;;;;5020230;28;20233;-59
2023/07/12 04:11:43;;;;;;;13.07;4.33;;;19.20;99.90;;;;;;5026114;28;20168;-59
2023/07/12 04:14:09;;;;;;;15.83;5.47;;;19.20;99.90;;;;;;5018812;28;20192;-59
2023/07/12 04:16:34;;;;;;;13.13;5.43;;;19.20;99.90;;;;;;5014796;28;20183;-60
2023/07/12 04:19:00;;;;;;;12.13;5.67;;;19.10;99.90;;;;;;5027133;28;20871;-58
2023/07/12 04:21:26;;;;;;;9.30;5.23;;;19.10;99.90;;;;;;5034404;28;20215;-58
2023/07/12 04:23:53;;;;;;;8.97;5.57;;;19.20;99.90;;;;;;5025550;28;20203;-61
2023/07/12 04:26:20;;;;;;;10.23;5.30;;;19.20;99.90;;;;;;5028720;28;20172;-62
2023/07/12 04:28:49;;;;;;;9.10;4.10;;;19.10;99.90;;;;;;5012659;28;20504;-60
2023/07/12 04:31:16;;;;;;;6.53;4.30;;;19.10;99.90;;;;;;5027988;28;20445;-61
2023/07/12 04:33:42;;;;;;;7.73;4.93;;;19.10;99.90;;;;;;5029692;28;20600;-63
2023/07/12 04:36:10;;;;;;;8.40;4.53;;;19.10;99.90;;;;;;5030452;28;20576;-61
2023/07/12 04:38:36;;;;;;;9.27;5.13;;;19.00;99.90;;;;;;5030724;28;20464;-62
2023/07/12 04:41:02;;;;;;;9.90;4.97;;;19.00;99.90;;;;;;5025459;28;20458;-61
2023/07/12 04:43:29;;;;;;;8.87;5.83;;;19.10;99.90;;;;;;5031534;28;20664;-61
2023/07/12 04:45:56;;;;;;;8.40;5.60;;;19.10;99.90;;;;;;5030666;28;20541;-60
2023/07/12 04:48:21;;;;;;;10.70;5.10;;;19.10;99.90;;;;;;5038212;28;20958;-61
2023/07/12 04:50:54;;;;;;;12.23;5.00;;;19.10;99.90;;;;;;5025232;28;20557;-60
2023/07/12 04:53:22;;;;;;;11.40;5.20;;;19.00;99.90;;;;;;5031554;28;20191;-61
2023/07/12 04:55:50;;;;;;;12.73;5.30;;;19.10;99.90;;;;;;5031647;28;20444;-61
2023/07/12 04:58:16;;;;;;;11.00;5.30;;;19.00;99.90;;;;;;5037698;28;20421;-62
2023/07/12 05:00:43;;;;;;;9.97;5.60;;;19.10;99.90;;;;;;5036229;28;20793;-61
2023/07/12 05:03:09;;;;;;;7.53;5.30;;;19.10;99.90;;;;;;5038407;28;20191;-61
2023/07/12 05:05:37;;;;;;;14.80;6.13;;;19.10;99.90;;;;;;5042153;28;20440;-61
2023/07/12 05:08:04;;;;;;;7.40;5.50;;;19.10;99.90;;;;;;5023294;28;20178;-60
2023/07/12 05:10:30;;;;;;;13.03;5.50;;;19.10;99.90;;;;;;5035397;28;20467;-60
2023/07/12 05:12:55;;;;;;;7.83;5.80;;;19.20;99.90;;;;;;5035506;28;20458;-61
2023/07/12 05:15:21;;;;;;;12.90;5.40;;;19.20;99.90;;;;;;5039673;28;20187;-60
2023/07/12 05:17:46;;;;;;;10.70;5.40;;;19.20;99.90;;;;;;5028220;28;20600;-60
2023/07/12 05:20:13;;;;;;;11.83;5.93;;;19.20;99.90;;;;;;5026685;28;20829;-61
2023/07/12 05:22:40;;;;;;;8.73;5.60;;;19.30;99.90;;;;;;5030448;28;20726;-61
2023/07/12 05:25:06;;;;;;;10.00;4.87;;;19.30;99.90;;;;;;5025060;28;20966;-61
2023/07/12 05:27:32;;;;;;;15.07;5.63;;;19.30;99.90;;;;;;5032297;28;20509;-61
2023/07/12 05:29:58;;;;;;;10.87;5.43;;;19.30;99.90;;;;;;5029442;28;20524;-61
2023/07/12 05:32:23;;;;;;;10.67;6.00;;;19.30;99.90;;;;;;5019323;28;20179;-61
2023/07/12 05:34:49;;;;;;;11.90;5.33;;;19.30;99.90;;;;;;5022469;28;20310;-61
2023/07/12 05:37:16;;;;;;;11.63;5.17;;;19.30;99.90;;;;;;5028427;28;20176;-60
2023/07/12 05:39:41;;;;;;;14.43;4.90;;;19.30;99.90;;;;;;5028707;28;20620;-60
2023/07/12 05:42:08;;;;;;;12.70;5.07;;;19.20;99.90;;;;;;5035869;28;20489;-62
2023/07/12 05:44:34;;;;;;;8.57;5.37;;;19.20;99.90;;;;;;5029420;28;20206;-60
2023/07/12 05:47:00;;;;;;;7.60;4.47;;;19.20;99.90;;;;;;5034732;28;20450;-61
2023/07/12 05:49:25;;;;;;;9.87;4.90;;;19.20;99.90;;;;;;5032654;28;20187;-60
2023/07/12 05:51:52;;;;;;;12.50;5.90;;;19.20;99.90;;;;;;5029657;28;20656;-62
2023/07/12 05:54:17;;;;;;;10.87;5.40;;;19.20;99.90;;;;;;5030118;28;20292;-61
2023/07/12 05:56:43;;;;;;;7.60;4.20;;;19.20;99.90;;;;;;5029971;28;20517;-61
2023/07/12 05:59:09;;;;;;;11.00;5.20;;;19.20;99.90;;;;;;5034603;28;20222;-60
2023/07/12 06:01:35;;;;;;;9.53;5.77;;;19.20;99.90;;;;;;5032546;28;20200;-61
2023/07/12 06:04:00;;;;;;;12.63;5.77;;;19.20;99.90;;;;;;5029111;28;20442;-62
2023/07/12 06:06:26;;;;;;;11.40;6.20;;;19.20;99.90;;;;;;5032018;28;20261;-61
2023/07/12 06:08:52;;;;;;;12.90;6.10;;;19.20;99.90;;;;;;5029763;28;20176;-61
2023/07/12 06:11:17;;;;;;;13.10;5.30;;;19.30;99.90;;;;;;5027784;28;20291;-60
2023/07/12 06:13:43;;;;;;;12.73;5.10;;;19.30;99.90;;;;;;5033763;28;20198;-60
2023/07/12 06:16:08;;;;;;;12.10;5.00;;;19.30;99.90;;;;;;5042614;28;20258;-59
2023/07/12 06:18:34;;;;;;;8.97;4.90;;;19.40;99.90;;;;;;5024692;28;20524;-60
2023/07/12 06:21:02;;;;;;;9.37;4.90;;;19.50;99.90;;;;;;5040146;28;20202;-59
2023/07/12 06:23:29;;;;;;;16.53;5.40;;;19.50;99.90;;;;;;5032508;28;20222;-59
2023/07/12 06:25:58;;;;;;;11.20;5.70;;;19.60;99.90;;;;;;5030549;28;20435;-60
2023/07/12 06:28:25;;;;;;;9.03;5.17;;;19.70;99.90;;;;;;5036293;28;20442;-60
2023/07/12 06:30:50;;;;;;;12.97;5.87;;;19.70;99.90;;;;;;5037918;28;20440;-61
2023/07/12 06:33:17;;;;;;;16.30;6.37;;;19.80;99.90;;;;;;5034617;28;20457;-62
2023/07/12 06:35:43;;;;;;;7.03;4.63;;;19.80;99.90;;;;;;5036081;28;20195;-60
2023/07/12 06:38:08;;;;;;;13.80;5.77;;;19.80;99.90;;;;;;5040834;28;20442;-60
2023/07/12 06:40:34;;;;;;;15.00;5.50;;;19.90;99.90;;;;;;5030325;28;20637;-60
2023/07/12 06:43:01;;;;;;;12.07;4.70;;;20.00;99.90;;;;;;5039653;28;20727;-58
2023/07/12 06:45:27;;;;;;;12.30;6.00;;;20.10;99.90;;;;;;5036530;28;20492;-59
2023/07/12 06:47:52;;;;;;;12.60;5.60;;;20.10;99.90;;;;;;5035473;28;20179;-61
2023/07/12 06:50:18;;;;;;;10.60;5.33;;;20.20;99.90;;;;;;5044939;28;20229;-61
2023/07/12 06:52:43;;;;;;;14.67;5.93;;;20.30;99.90;;;;;;5032860;28;20663;-60
2023/07/12 06:55:09;;;;;;;13.17;6.10;;;20.30;99.90;;;;;;5033941;28;20184;-61
2023/07/12 06:57:35;;;;;;;12.57;5.43;;;20.40;99.90;;;;;;5040365;28;20754;-59
2023/07/12 07:00:07;;;;;;;10.87;5.27;;;20.40;99.90;;;;;;5034344;28;20200;-60
2023/07/12 07:02:33;;;;;;;12.30;5.90;;;20.60;99.90;;;;;;5032471;28;20270;-59
2023/07/12 07:04:59;;;;;;;12.10;5.57;;;20.70;99.90;;;;;;5046240;28;20424;-61
2023/07/12 07:07:25;;;;;;;12.07;5.53;;;20.80;99.90;;;;;;5049136;28;20402;-61
2023/07/12 07:09:50;;;;;;;9.63;5.53;;;20.90;99.90;;;;;;5046710;28;20182;-60
2023/07/12 07:12:16;;;;;;;13.60;6.77;;;20.90;99.90;;;;;;5036445;28;20444;-60
2023/07/12 07:14:42;;;;;;;9.43;5.00;;;21.00;99.90;;;;;;5033023;28;20687;-61
2023/07/12 07:17:08;;;;;;;13.03;6.07;;;21.00;99.90;;;;;;5044516;28;20270;-61
2023/07/12 07:19:34;;;;;;;12.97;6.40;;;21.10;99.90;;;;;;5030016;28;20171;-60
2023/07/12 07:21:59;;;;;;;13.40;5.77;;;21.10;99.90;;;;;;5045037;28;20457;-61
2023/07/12 07:24:25;;;;;;;18.90;6.27;;;21.10;99.90;;;;;;5049931;28;20765;-61
2023/07/12 07:26:51;;;;;;;18.80;6.13;;;21.10;99.90;;;;;;5037092;28;20717;-61
2023/07/12 07:29:17;;;;;;;10.83;5.83;;;21.10;99.90;;;;;;5039504;28;20434;-61
2023/07/12 07:31:42;;;;;;;12.13;6.47;;;21.10;99.90;;;;;;5032981;28;20179;-60
2023/07/12 07:34:08;;;;;;;13.30;5.80;;;21.00;99.90;;;;;;5037069;28;20191;-60
2023/07/12 07:36:34;;;;;;;10.50;6.50;;;21.10;99.90;;;;;;5026910;28;20752;-60
2023/07/12 07:39:00;;;;;;;12.30;6.70;;;21.10;99.90;;;;;;5025062;28;20191;-59
2023/07/12 07:41:27;;;;;;;10.93;6.23;;;21.00;99.90;;;;;;5033554;28;20476;-60
2023/07/12 07:43:53;;;;;;;13.60;6.93;;;21.00;99.90;;;;;;5028546;28;20230;-60
2023/07/12 07:46:18;;;;;;;15.17;6.73;;;21.00;99.90;;;;;;5035333;28;20507;-59
2023/07/12 07:48:45;;;;;;;11.83;6.90;;;21.00;99.90;;;;;;5029434;28;20168;-60
2023/07/12 07:51:14;;;;;;;11.70;7.23;;;21.10;99.90;;;;;;5029998;28;20500;-60
2023/07/12 07:53:40;;;;;;;14.20;7.10;;;21.10;99.90;;;;;;5027286;28;20532;-59
2023/07/12 07:56:05;;;;;;;12.53;6.50;;;21.10;99.90;;;;;;5036151;28;20434;-59
2023/07/12 07:58:31;;;;;;;11.10;6.27;;;21.30;99.90;;;;;;5027547;28;20179;-59
2023/07/12 08:00:57;;;;;;;11.47;7.23;;;21.50;99.90;;;;;;5035469;28;20711;-60
2023/07/12 08:03:22;;;;;;;11.70;6.90;;;21.60;99.90;;;;;;5031259;28;20191;-59
2023/07/12 08:05:48;;;;;;;20.30;7.63;;;21.80;99.90;;;;;;5028968;28;20186;-58
2023/07/12 08:08:14;;;;;;;18.57;8.80;;;22.00;99.90;;;;;;5028678;28;20174;-60
2023/07/12 08:10:40;;;;;;;16.40;7.57;;;22.10;99.90;;;;;;5028365;28;20194;-58
2023/07/12 08:13:06;;;;;;;12.17;8.20;;;22.20;99.90;;;;;;5031482;28;20195;-59
2023/07/12 08:15:31;;;;;;;15.10;8.30;;;22.30;99.90;;;;;;5025517;28;20233;-59
2023/07/12 08:17:57;;;;;;;16.77;7.50;;;22.40;99.90;;;;;;5024756;28;20434;-60
2023/07/12 08:20:24;;;;;;;12.17;7.77;;;22.50;99.90;;;;;;5027204;28;20345;-59
2023/07/12 08:22:50;;;;;;;16.93;8.30;;;22.60;99.90;;;;;;5025493;28;20207;-59
2023/07/12 08:25:16;;;;;;;10.70;7.10;;;22.60;99.90;;;;;;5028383;28;20437;-59
2023/07/12 08:27:42;;;;;;;12.83;6.70;;;22.70;99.90;;;;;;5031036;28;20633;-60
2023/07/12 08:30:08;;;;;;;12.00;7.83;;;22.80;99.90;;;;;;5027593;28;20195;-61
2023/07/12 08:32:34;;;;;;;13.47;7.77;;;22.80;99.90;;;;;;5026953;28;20858;-60
2023/07/12 08:35:01;;;;;;;11.80;7.47;;;22.80;99.90;;;;;;5030551;28;20434;-60
2023/07/12 08:37:28;;;;;;;11.60;7.60;;;22.80;99.90;;;;;;5026807;28;20289;-60
2023/07/12 08:39:54;;;;;;;17.80;8.60;;;22.70;99.90;;;;;;5028088;28;20434;-59
2023/07/12 08:42:39;;;;;;;18.67;8.50;;;22.80;99.90;;;;;;5032824;28;20433;-59
2023/07/12 08:45:15;;;;;;;21.60;7.80;;;22.90;99.90;;;;;;5027333;28;20440;-59
2023/07/12 08:47:40;;;;;;;12.10;7.63;;;23.00;99.90;;;;;;5028072;28;20429;-61
2023/07/12 08:50:16;;;;;;;14.77;8.23;;;23.00;99.90;;;;;;5030394;28;20422;-60
2023/07/12 08:52:44;;;;;;;11.20;7.63;;;23.10;99.90;;;;;;5039215;28;20172;-59
2023/07/12 08:55:18;;;;;;;14.53;8.00;;;23.30;99.90;;;;;;5039342;28;20425;-58
2023/07/12 08:57:47;;;;;;;16.00;8.20;;;23.40;99.90;;;;;;5039824;28;20437;-59
2023/07/12 09:00:19;;;;;;;13.50;7.07;;;23.50;99.90;;;;;;5033374;28;20464;-59
2023/07/12 09:02:45;;;;;;;13.20;7.23;;;23.50;99.90;;;;;;5031031;28;20461;-59
2023/07/12 09:05:17;;;;;;;11.90;7.93;;;23.50;99.90;;;;;;5030314;28;20501;-62
2023/07/12 09:07:54;;;;;;;17.53;7.13;;;23.60;99.90;;;;;;5034684;28;20180;-58
2023/07/12 09:10:29;;;;;;;13.30;7.77;;;23.70;99.90;;;;;;5035232;28;20510;-58
2023/07/12 09:12:58;;;;;;;13.30;6.23;;;23.70;99.90;;;;;;5034479;28;20462;-59
2023/07/12 09:15:33;;;;;;;13.50;7.10;;;23.70;99.90;;;;;;5031987;28;20439;-58
2023/07/12 09:17:59;;;;;;;15.47;7.40;;;23.70;99.90;;;;;;5024597;28;20459;-59
2023/07/12 09:20:28;;;;;;;12.67;7.47;;;23.60;99.90;;;;;;5036504;28;21061;-58
2023/07/12 09:22:54;;;;;;;15.93;7.30;;;23.60;99.90;;;;;;5033474;28;20458;-58
2023/07/12 09:25:23;;;;;;;14.40;7.20;;;23.60;99.90;;;;;;5038434;28;20421;-59
2023/07/12 09:27:49;;;;;;;9.33;7.37;;;23.80;99.90;;;;;;5030169;28;21043;-60
2023/07/12 09:30:23;;;;;;;12.23;6.90;;;24.10;99.90;;;;;;5031759;28;20433;-58
2023/07/12 09:32:49;;;;;;;12.50;7.17;;;24.40;99.90;;;;;;5043278;28;20183;-59
2023/07/12 09:35:31;;;;;;;7.73;5.67;;;24.50;99.90;;;;;;5035317;28;20816;-59
2023/07/12 09:38:06;;;;;;;9.27;6.27;;;24.50;99.90;;;;;;5023283;28;20453;-60
2023/07/12 09:40:38;;;;;;;10.10;5.90;;;24.50;99.90;;;;;;5025281;28;20464;-58
2023/07/12 09:43:14;;;;;;;9.50;5.90;;;24.40;99.90;;;;;;5032588;28;20437;-59
2023/07/12 09:45:42;;;;;;;9.07;5.47;;;24.30;99.90;;;;;;5036104;28;20434;-58
2023/07/12 09:48:31;;;;;;;10.33;5.87;;;24.20;99.90;;;;;;5029872;28;20842;-58
2023/07/12 09:51:28;;;;;;;11.30;7.27;;;24.30;99.90;;;;;;5031676;28;20474;-59
2023/07/12 09:54:27;;;;;;;16.37;6.60;;;24.50;99.90;;;;;;5029140;28;20461;-58
2023/07/12 09:56:56;;;;;;;14.30;7.60;;;24.70;99.90;;;;;;5029364;28;20434;-58
2023/07/12 09:59:40;;;;;;;22.30;13.67;;;24.90;99.90;;;;;;5034285;28;21022;-56
2023/07/12 10:02:30;;;;;;;11.63;7.80;;;24.90;99.90;;;;;;5020857;28;20519;-58
2023/07/12 10:05:01;;;;;;;15.87;7.17;;;24.90;99.90;;;;;;5029578;28;21240;-57
2023/07/12 10:07:57;;;;;;;14.93;7.07;;;24.90;99.90;;;;;;5038068;28;20435;-58
2023/07/12 10:10:32;;;;;;;8.93;6.70;;;24.80;99.90;;;;;;5037112;28;20433;-58
2023/07/12 10:13:18;;;;;;;14.37;6.50;;;24.70;99.90;;;;;;5035823;28;21073;-57
2023/07/12 10:15:45;;;;;;;13.30;6.20;;;24.50;99.90;;;;;;5028612;28;20438;-57
2023/07/12 10:18:18;;;;;;;12.50;6.60;;;24.50;99.90;;;;;;5024703;28;20429;-58
2023/07/12 10:20:44;;;;;;;12.80;5.87;;;24.60;99.90;;;;;;5028944;28;20458;-58
2023/07/12 10:23:11;;;;;;;7.10;6.07;;;24.70;99.90;;;;;;5030266;28;20457;-57
2023/07/12 10:25:44;;;;;;;10.23;6.10;;;24.90;99.90;;;;;;5031873;28;20171;-57
2023/07/12 10:28:25;;;;;;;9.93;6.30;;;25.00;99.90;;;;;;5034442;28;20495;-57
2023/07/12 10:30:54;;;;;;;8.87;6.00;;;25.00;99.90;;;;;;5038165;28;20855;-59
2023/07/12 10:33:29;;;;;;;8.73;5.70;;;25.00;99.90;;;;;;5028807;28;20459;-59
2023/07/12 10:36:06;;;;;;;7.90;5.83;;;25.00;99.90;;;;;;5034733;28;20461;-58
2023/07/12 10:38:32;;;;;;;8.83;5.80;;;24.90;99.50;;;;;;5037890;28;20448;-58
2023/07/12 10:41:11;;;;;;;10.10;6.17;;;24.80;99.90;;;;;;5034524;28;20491;-58
2023/07/12 10:43:41;;;;;;;10.83;6.13;;;24.80;99.90;;;;;;5035726;28;20195;-58
2023/07/12 10:46:33;;;;;;;7.80;5.63;;;24.80;99.90;;;;;;5037295;28;20440;-59
2023/07/12 10:49:02;;;;;;;8.43;5.80;;;24.80;99.90;;;;;;5034107;28;20430;-57
2023/07/12 10:51:31;;;;;;;10.87;6.03;;;25.00;99.90;;;;;;5044741;28;20441;-59
2023/07/12 10:53:57;;;;;;;12.63;6.90;;;25.20;98.20;;;;;;5040531;28;20458;-63
2023/07/12 10:56:34;;;;;;;9.77;5.97;;;25.20;94.70;;;;;;5034575;28;20437;-59
2023/07/12 10:59:05;;;;;;;9.47;5.90;;;25.30;98.60;;;;;;5033235;28;20557;-58
2023/07/12 11:01:43;;;;;;;8.80;5.90;;;25.20;99.90;;;;;;5032480;28;20489;-59
2023/07/12 11:04:13;;;;;;;15.30;6.83;;;25.20;99.70;;;;;;5036539;28;20449;-60
2023/07/12 11:06:54;;;;;;;15.03;6.47;;;25.30;93.50;;;;;;5041639;28;20926;-58
2023/07/12 11:09:20;;;;;;;12.40;6.10;;;25.50;94.40;;;;;;5042702;28;20414;-59
2023/07/12 11:11:53;;;;;;;11.73;6.03;;;25.70;93.80;;;;;;5038708;28;20438;-58
2023/07/12 11:14:43;;;;;;;13.60;6.13;;;25.60;90.10;;;;;;5039491;28;20214;-58
2023/07/12 11:17:14;;;;;;;14.07;6.23;;;25.40;86.50;;;;;;5045184;28;20429;-58
2023/07/12 11:19:39;;;;;;;12.67;6.70;;;25.30;91.80;;;;;;5047319;28;20402;-59
2023/07/12 11:22:17;;;;;;;9.30;5.93;;;25.30;95.90;;;;;;5043621;28;20472;-60
2023/07/12 11:24:48;;;;;;;8.83;5.80;;;25.40;93.60;;;;;;5042797;28;20206;-60
2023/07/12 11:27:44;;;;;;;10.87;6.20;;;25.50;94.20;;;;;;5039955;28;20480;-59
2023/07/12 11:30:15;;;;;;;9.53;6.20;;;25.50;93.10;;;;;;5034215;28;20431;-59
2023/07/12 11:32:44;;;;;;;7.43;5.80;;;25.40;93.10;;;;;;5046714;28;20493;-61
2023/07/12 11:35:15;;;;;;;7.77;5.53;;;25.30;94.60;;;;;;5041408;28;20785;-58
2023/07/12 11:37:45;;;;;;;8.87;6.13;;;25.50;94.60;;;;;;5041435;28;20455;-59
2023/07/12 11:40:20;;;;;;;9.90;5.67;;;25.90;93.70;;;;;;5040517;28;20433;-60
2023/07/12 11:42:46;;;;;;;8.90;6.13;;;26.30;88.50;;;;;;5040136;28;20432;-59
2023/07/12 11:45:15;;;;;;;9.03;5.63;;;26.50;81.20;;;;;;5038863;28;20513;-58
2023/07/12 11:47:51;;;;;;;20.83;6.03;;;26.50;78.70;;;;;;5042808;28;20780;-59
2023/07/12 11:50:25;;;;;;;9.03;5.97;;;26.40;78.90;;;;;;5046609;28;20444;-58
2023/07/12 11:52:52;;;;;;;9.20;5.80;;;26.40;90.00;;;;;;5040133;28;20511;-59
2023/07/12 11:55:28;;;;;;;12.43;6.70;;;26.30;93.80;;;;;;5043341;28;20512;-58
2023/07/12 11:57:55;;;;;;;13.37;6.00;;;26.20;88.60;;;;;;5042431;28;20178;-58
2023/07/12 12:00:27;;;;;;;12.27;6.70;;;26.00;81.90;;;;;;5043733;28;20278;-59
2023/07/12 12:02:55;;;;;;;10.07;6.50;;;25.70;78.30;;;;;;5037265;28;20424;-58
2023/07/12 12:05:32;;;;;;;10.90;6.00;;;25.70;90.40;;;;;;5037007;28;20915;-57
2023/07/12 12:08:02;;;;;;;10.63;7.53;;;25.50;92.90;;;;;;5040181;28;20434;-59
2023/07/12 12:10:29;;;;;;;11.20;6.80;;;25.40;94.10;;;;;;5039643;28;20433;-58
2023/07/12 12:12:55;;;;;;;11.30;6.63;;;25.30;95.30;;;;;;5036642;28;20502;-58
2023/07/12 12:15:32;;;;;;;14.03;7.20;;;25.20;91.80;;;;;;5043156;28;20437;-58
2023/07/12 12:18:05;;;;;;;8.93;6.07;;;25.40;88.90;;;;;;5034703;28;20258;-59
2023/07/12 12:20:33;;;;;;;8.73;6.47;;;25.70;85.00;;;;;;5028121;28;20491;-58
2023/07/12 12:23:30;;;;;;;11.73;6.97;;;25.80;75.90;;;;;;5027499;28;20454;-59
2023/07/12 12:26:05;;;;;;;14.50;6.10;;;25.70;78.30;;;;;;5018815;28;21177;-59
2023/07/12 12:28:35;;;;;;;11.93;6.57;;;25.60;77.60;;;;;;5015856;28;20434;-60
2023/07/12 12:31:22;;;;;;;9.63;6.40;;;25.50;79.40;;;;;;5028675;28;20452;-59
2023/07/12 12:33:51;;;;;;;11.20;6.20;;;25.30;84.10;;;;;;5043524;28;20919;-59
2023/07/12 12:36:27;;;;;;;9.03;6.93;;;25.20;90.40;;;;;;5035276;28;20429;-58
2023/07/12 12:39:20;;;;;;;18.50;9.20;;;25.00;95.20;;;;;;5030248;28;20494;-60
2023/07/12 12:41:52;;;;;;;13.33;7.30;;;24.90;99.90;;;;;;5040156;28;20457;-62
2023/07/12 12:44:19;;;;;;;11.97;7.90;;;24.50;99.90;;;;;;5043976;28;24657;-60
2023/07/12 12:46:51;;;;;;;11.40;7.00;;;24.10;99.90;;;;;;5049204;28;20421;-58
2023/07/12 12:49:31;;;;;;;8.73;7.43;;;23.80;99.90;;;;;;5037036;28;20860;-60